createdAt,value
2019-05-18T00:06:56.420Z,97910.27
2019-05-18T00:16:57.606Z,97922.22
2019-05-18T00:26:58.850Z,97927.52
2019-05-18T00:37:02.017Z,97923.09
2019-05-18T00:47:03.066Z,97918.85
2019-05-18T00:57:04.093Z,97924.14
2019-05-18T01:07:04.819Z,97915.37
2019-05-18T01:17:05.805Z,97921.95
2019-05-18T01:27:07.222Z,97911.65
2019-05-18T01:37:08.362Z,97916.39
2019-05-18T01:47:09.476Z,97913.93
2019-05-18T01:57:10.314Z,97912.66
2019-05-18T02:07:11.055Z,97911.60
2019-05-18T02:17:12.010Z,97918.73
2019-05-18T02:27:12.671Z,97920.63
2019-05-18T02:37:13.774Z,97916.66
2019-05-18T02:47:14.536Z,97915.85
2019-05-18T02:57:15.320Z,97907.20
2019-05-18T03:07:17.775Z,97896.87
2019-05-18T03:17:18.540Z,97886.80
2019-05-18T03:27:20.277Z,97883.89
2019-05-18T03:37:22.045Z,97884.94
2019-05-18T03:47:22.714Z,97894.14
2019-05-18T03:57:23.693Z,97893.95
2019-05-18T04:07:24.718Z,97898.69
2019-05-18T04:17:25.499Z,97895.84
2019-05-18T04:27:26.564Z,97896.36
2019-05-18T04:37:27.295Z,97904.03
2019-05-18T04:47:28.104Z,97912.98
2019-05-18T04:57:29.373Z,97909.22
2019-05-18T05:07:30.292Z,97915.62
2019-05-18T05:17:31.302Z,97917.14
2019-05-18T05:27:32.214Z,97915.88
2019-05-18T05:37:33.146Z,97905.30
2019-05-18T05:47:33.949Z,97919.45
2019-05-18T05:57:35.706Z,97916.36
2019-05-18T06:07:36.559Z,97918.57
2019-05-18T06:17:37.473Z,97931.25
2019-05-18T06:27:39.316Z,97929.29
2019-05-18T06:37:40.506Z,97944.20
2019-05-18T06:47:41.647Z,97949.75
2019-05-18T06:57:43.044Z,97952.86
2019-05-18T07:07:43.707Z,97948.47
2019-05-18T07:17:44.675Z,97946.28
2019-05-18T07:27:45.645Z,97953.33
2019-05-18T07:37:46.589Z,97951.53
2019-05-18T07:47:47.344Z,97945.42
2019-05-18T07:57:48.627Z,97947.08
2019-05-18T08:07:49.636Z,97952.64
2019-05-18T08:17:50.317Z,97956.43
2019-05-18T08:27:51.020Z,97951.50
2019-05-18T08:37:51.684Z,97949.75
2019-05-18T08:47:52.686Z,97947.41
2019-05-18T08:57:53.637Z,97951.97
2019-05-18T09:07:54.467Z,97947.28
2019-05-18T09:17:55.443Z,97937.19
2019-05-18T09:27:56.383Z,97943.86
2019-05-18T09:37:57.149Z,97935.32
2019-05-18T09:47:58.046Z,97934.16
2019-05-18T09:57:59.151Z,97932.61
2019-05-18T10:07:59.845Z,97929.25
2019-05-18T10:18:00.588Z,97932.03
2019-05-18T10:28:01.418Z,97930.77
2019-05-18T10:38:02.183Z,97911.46
2019-05-18T10:48:03.131Z,97915.11
2019-05-18T10:58:03.997Z,97913.78
2019-05-18T11:08:04.769Z,97902.97
2019-05-18T11:18:05.696Z,97901.94
2019-05-18T11:28:06.668Z,97889.31
2019-05-18T11:38:07.413Z,97895.52
2019-05-18T11:48:08.438Z,97881.87
2019-05-18T11:58:09.504Z,97869.09
2019-05-18T12:08:12.484Z,97873.20
2019-05-18T12:18:13.247Z,97868.57
2019-05-18T12:28:14.264Z,97843.22
2019-05-18T12:38:15.353Z,97859.00
2019-05-18T12:48:16.734Z,97849.33
2019-05-18T12:58:18.705Z,97833.34
2019-05-18T13:08:19.594Z,97841.35
2019-05-18T13:27:51.344Z,97831.42
2019-05-18T13:37:52.477Z,97818.58
2019-05-18T13:47:53.206Z,97819.92
2019-05-18T13:57:54.272Z,97814.94
2019-05-18T14:07:55.175Z,97810.01
2019-05-18T14:17:56.018Z,97804.38
2019-05-18T14:27:56.996Z,97811.88
2019-05-18T14:37:57.737Z,97798.91
2019-05-18T14:47:58.763Z,97794.18
2019-05-18T14:57:59.568Z,97786.16
2019-05-18T15:08:00.554Z,97774.56
2019-05-18T15:18:01.505Z,97779.62
2019-05-18T15:28:02.418Z,97771.61
2019-05-18T15:38:03.665Z,97768.75
2019-05-18T15:48:04.719Z,97769.20
2019-05-18T15:58:05.675Z,97780.59
2019-05-18T16:08:06.643Z,97784.94
2019-05-18T16:18:07.844Z,97786.46
2019-05-18T16:28:08.594Z,97781.53
2019-05-18T16:38:09.948Z,97789.42
2019-05-18T16:48:10.932Z,97788.41
2019-05-18T16:58:11.620Z,97790.62
2019-05-18T17:08:12.718Z,97787.72
2019-05-18T17:18:13.858Z,97791.95
2019-05-18T17:28:14.588Z,97787.46
2019-05-18T17:38:15.495Z,97803.39
2019-05-18T17:48:16.432Z,97801.71
2019-05-18T17:58:17.218Z,97828.02
2019-05-18T18:08:18.223Z,97832.61
2019-05-18T18:18:21.137Z,97831.39
2019-05-18T18:28:22.304Z,97840.48
2019-05-18T18:38:23.046Z,97843.70
2019-05-18T18:48:26.431Z,97847.63
2019-05-18T18:58:26.631Z,97844.30
2019-05-18T19:08:27.310Z,97851.98
2019-05-18T19:18:28.242Z,97855.70
2019-05-18T19:28:29.181Z,97864.13
2019-05-18T19:38:29.928Z,97865.07
2019-05-18T19:48:31.348Z,97877.50
2019-05-18T19:58:32.395Z,97883.02
2019-05-18T20:08:33.337Z,97898.67
2019-05-18T20:18:34.865Z,97934.13
2019-05-18T20:28:35.737Z,97929.98
2019-05-18T20:38:36.639Z,97945.54
2019-05-18T20:48:37.406Z,97939.61
2019-05-18T20:58:40.597Z,97953.44
2019-05-18T21:08:41.974Z,97992.77
2019-05-18T21:18:43.153Z,98010.14
2019-05-18T21:28:55.459Z,97964.80
2019-05-18T21:38:47.246Z,97951.31
2019-05-18T21:48:48.167Z,97917.66
2019-05-18T21:58:49.364Z,97928.92
2019-05-18T22:08:50.388Z,97912.86
2019-05-18T22:18:51.535Z,97912.53
2019-05-18T22:28:52.563Z,97900.08
2019-05-18T22:38:53.603Z,97895.56
2019-05-18T22:48:55.439Z,97921.14
2019-05-18T22:58:57.161Z,97933.11
2019-05-18T23:08:58.170Z,97935.13
2019-05-18T23:18:58.941Z,97944.64
2019-05-18T23:29:00.015Z,97951.80
2019-05-18T23:39:00.826Z,97947.08
2019-05-18T23:49:10.550Z,97941.91
2019-05-18T23:59:04.399Z,97938.97
